createdAt,value
2023-01-06T00:01:37.595Z,14.75
2023-01-06T00:04:08.244Z,9.30
2023-01-06T00:06:37.682Z,12.30
2023-01-06T00:09:07.194Z,7.13
2023-01-06T00:11:37.970Z,10.85
2023-01-06T00:14:07.135Z,5.47
2023-01-06T00:16:37.034Z,8.55
2023-01-06T00:19:07.573Z,7.63
2023-01-06T00:21:36.969Z,6.57
2023-01-06T00:24:06.636Z,11.70
2023-01-06T00:26:35.903Z,6.90
2023-01-06T00:29:05.895Z,8.68
2023-01-06T00:31:35.202Z,8.88
2023-01-06T00:34:04.221Z,13.43
2023-01-06T00:36:34.919Z,13.02
2023-01-06T00:39:04.676Z,7.72
2023-01-06T00:42:00.041Z,8.82
2023-01-06T00:44:29.162Z,8.45
2023-01-06T00:46:58.840Z,12.63
2023-01-06T00:49:28.395Z,11.80
2023-01-06T00:51:59.164Z,10.00
2023-01-06T00:54:28.386Z,9.98
2023-01-06T00:56:58.177Z,8.57
2023-01-06T00:59:27.972Z,7.93
2023-01-06T01:01:59.016Z,8.25
2023-01-06T01:04:29.343Z,14.45
2023-01-06T01:07:00.740Z,5.38
2023-01-06T01:09:31.578Z,6.50
2023-01-06T01:12:14.210Z,9.00
2023-01-06T01:14:47.023Z,6.35
2023-01-06T01:17:19.277Z,8.45
2023-01-06T01:19:49.977Z,9.55
2023-01-06T01:22:20.832Z,6.45
2023-01-06T01:24:50.115Z,8.60
2023-01-06T01:27:19.897Z,8.65
2023-01-06T01:29:49.455Z,7.90
2023-01-06T01:32:18.713Z,9.93
2023-01-06T01:34:47.817Z,7.93
2023-01-06T01:37:17.196Z,11.27
2023-01-06T01:39:49.169Z,7.80
2023-01-06T01:42:20.819Z,7.20
2023-01-06T01:45:05.934Z,6.18
2023-01-06T01:47:44.471Z,9.60
2023-01-06T01:50:24.563Z,8.50
2023-01-06T01:53:06.547Z,9.02
2023-01-06T01:55:39.122Z,7.25
2023-01-06T01:58:11.151Z,8.10
2023-01-06T02:00:43.944Z,8.70
2023-01-06T02:03:15.621Z,13.07
2023-01-06T02:05:50.083Z,14.13
2023-01-06T02:08:27.573Z,12.35
2023-01-06T02:10:58.149Z,11.25
2023-01-06T02:13:28.287Z,7.85
2023-01-06T02:16:05.840Z,13.35
2023-01-06T02:18:48.071Z,9.73
2023-01-06T02:21:31.754Z,5.85
2023-01-06T02:24:46.743Z,6.45
2023-01-06T02:27:41.275Z,6.10
2023-01-06T02:30:43.051Z,7.95
2023-01-06T02:33:25.191Z,8.05
2023-01-06T02:36:21.902Z,10.32
2023-01-06T02:39:05.171Z,8.25
2023-01-06T02:41:43.471Z,9.32
2023-01-06T02:44:25.351Z,10.10
2023-01-06T02:47:14.346Z,11.77
2023-01-06T02:49:57.179Z,6.72
2023-01-06T02:52:37.768Z,6.80
2023-01-06T02:55:12.462Z,7.43
2023-01-06T02:57:46.818Z,7.45
2023-01-06T03:00:22.736Z,10.20
2023-01-06T03:02:59.108Z,9.38
2023-01-06T03:05:30.693Z,6.95
2023-01-06T03:08:03.814Z,9.90
2023-01-06T03:10:34.181Z,10.07
2023-01-06T03:13:09.459Z,6.10
2023-01-06T03:15:38.622Z,4.97
2023-01-06T03:18:08.498Z,4.75
2023-01-06T03:20:40.272Z,4.53
2023-01-06T03:23:09.809Z,4.88
2023-01-06T03:25:40.250Z,9.50
2023-01-06T03:28:11.344Z,5.97
2023-01-06T03:48:00.579Z,7.28
2023-01-06T03:50:36.649Z,9.18
2023-01-06T03:53:17.419Z,6.35
2023-01-06T03:55:53.213Z,13.05
2023-01-06T03:58:24.407Z,9.75
2023-01-06T04:00:55.428Z,8.02
2023-01-06T04:03:27.351Z,4.47
2023-01-06T04:05:56.633Z,6.30
2023-01-06T04:08:25.991Z,5.10
2023-01-06T04:10:55.095Z,12.35
2023-01-06T04:13:24.276Z,7.38
2023-01-06T04:15:56.143Z,9.52
2023-01-06T04:18:26.969Z,6.72
2023-01-06T04:20:56.151Z,8.10
2023-01-06T04:23:32.987Z,8.98
2023-01-06T04:26:06.621Z,8.02
2023-01-06T04:28:41.639Z,11.98
2023-01-06T04:31:11.630Z,8.35
2023-01-06T04:33:43.293Z,6.97
2023-01-06T04:36:14.526Z,7.35
2023-01-06T04:38:47.447Z,7.63
2023-01-06T04:41:16.908Z,8.95
2023-01-06T04:43:46.209Z,8.65
2023-01-06T04:46:15.289Z,9.10
2023-01-06T04:48:45.946Z,12.18
2023-01-06T04:51:15.044Z,7.38
2023-01-06T04:53:44.346Z,11.75
2023-01-06T04:56:14.482Z,8.82
2023-01-06T04:58:43.964Z,6.07
2023-01-06T05:01:14.471Z,6.20
2023-01-06T05:03:45.502Z,9.27
2023-01-06T05:06:15.577Z,11.13
2023-01-06T05:08:45.764Z,7.63
2023-01-06T05:11:18.464Z,6.13
2023-01-06T05:13:48.276Z,9.30
2023-01-06T05:16:21.265Z,7.60
2023-01-06T05:18:52.714Z,10.45
2023-01-06T05:21:21.978Z,6.53
2023-01-06T05:23:51.600Z,6.93
2023-01-06T05:26:23.385Z,7.88
2023-01-06T05:28:53.038Z,7.63
2023-01-06T05:31:22.236Z,8.30
2023-01-06T05:33:53.053Z,9.32
2023-01-06T05:36:22.461Z,11.30
2023-01-06T05:38:55.666Z,7.22
2023-01-06T05:41:25.013Z,9.20
2023-01-06T05:43:54.405Z,8.18
2023-01-06T05:46:23.568Z,10.43
2023-01-06T05:48:54.232Z,8.13
2023-01-06T05:51:23.471Z,8.63
2023-01-06T05:53:52.790Z,8.63
2023-01-06T05:56:23.931Z,9.48
2023-01-06T05:58:54.535Z,12.82
2023-01-06T06:01:24.616Z,7.93
2023-01-06T06:03:56.141Z,7.40
2023-01-06T06:06:27.363Z,6.20
2023-01-06T06:08:56.768Z,6.85
2023-01-06T06:11:25.988Z,8.33
2023-01-06T06:13:56.961Z,4.78
2023-01-06T06:16:27.712Z,6.40
2023-01-06T06:19:00.049Z,6.38
2023-01-06T06:21:31.172Z,6.65
2023-01-06T06:24:01.525Z,10.30
2023-01-06T06:26:30.649Z,8.60
2023-01-06T06:28:59.987Z,5.72
2023-01-06T06:31:30.570Z,7.87
2023-01-06T06:34:03.712Z,6.07
2023-01-06T06:36:33.611Z,9.75
2023-01-06T06:39:03.740Z,5.88
2023-01-06T06:41:32.882Z,5.13
2023-01-06T06:44:03.962Z,10.20
2023-01-06T06:46:33.150Z,8.40
2023-01-06T06:49:03.986Z,7.70
2023-01-06T06:51:33.224Z,10.30
2023-01-06T06:54:02.477Z,8.52
2023-01-06T06:56:31.609Z,8.02
2023-01-06T06:59:00.871Z,8.85
2023-01-06T07:01:31.850Z,6.68
2023-01-06T07:04:02.772Z,7.03
2023-01-06T07:06:32.608Z,9.88
2023-01-06T07:09:02.088Z,8.07
2023-01-06T07:11:31.084Z,7.60
2023-01-06T07:14:00.346Z,11.82
2023-01-06T07:16:30.864Z,8.05
2023-01-06T07:19:00.371Z,7.38
2023-01-06T07:21:30.892Z,7.88
2023-01-06T07:24:00.309Z,7.43
2023-01-06T07:26:29.475Z,11.02
2023-01-06T07:28:59.386Z,7.70
2023-01-06T07:31:28.630Z,14.27
2023-01-06T07:33:57.964Z,11.40
2023-01-06T07:36:27.113Z,11.77
2023-01-06T07:38:58.038Z,12.32
2023-01-06T07:41:27.152Z,8.00
2023-01-06T07:43:56.457Z,7.30
2023-01-06T07:46:25.583Z,6.95
2023-01-06T07:48:54.852Z,14.73
2023-01-06T07:51:24.058Z,7.28
2023-01-06T07:53:53.578Z,6.70
2023-01-06T07:56:25.063Z,8.02
2023-01-06T07:58:54.920Z,6.57
2023-01-06T08:01:24.026Z,10.38
2023-01-06T08:03:53.471Z,11.35
2023-01-06T08:06:22.442Z,12.17
2023-01-06T08:08:51.854Z,6.90
2023-01-06T08:11:21.138Z,10.25
2023-01-06T08:13:52.258Z,6.97
2023-01-06T08:16:21.486Z,10.15
2023-01-06T08:18:50.780Z,8.32
2023-01-06T08:21:19.971Z,6.75
2023-01-06T08:23:49.275Z,7.50
2023-01-06T08:26:19.846Z,6.93
2023-01-06T08:28:49.407Z,11.32
2023-01-06T08:31:22.269Z,14.38
2023-01-06T08:33:53.562Z,9.90
2023-01-06T08:36:24.478Z,10.35
2023-01-06T08:38:54.782Z,9.35
2023-01-06T08:43:53.404Z,10.65
2023-01-06T08:46:24.171Z,14.55
2023-01-06T08:48:53.759Z,8.95
2023-01-06T08:51:24.025Z,7.47
2023-01-06T08:53:54.336Z,11.63
2023-01-06T08:56:25.705Z,11.77
2023-01-06T08:58:57.679Z,11.57
2023-01-06T09:01:29.941Z,13.57
2023-01-06T09:04:01.147Z,12.50
2023-01-06T09:06:31.161Z,8.60
2023-01-06T09:09:01.397Z,12.77
2023-01-06T09:13:59.657Z,11.68
2023-01-06T09:16:30.824Z,10.98
2023-01-06T09:19:00.454Z,15.93
2023-01-06T09:21:29.477Z,13.10
2023-01-06T09:23:58.914Z,10.15
2023-01-06T09:26:27.908Z,8.13
2023-01-06T09:28:57.332Z,10.02
2023-01-06T09:31:27.129Z,14.27
2023-01-06T09:33:57.982Z,11.73
2023-01-06T09:36:27.107Z,9.82
2023-01-06T09:38:56.391Z,12.93
2023-01-06T09:41:49.348Z,17.08
2023-01-06T09:44:24.742Z,16.70
2023-01-06T09:46:54.798Z,16.15
2023-01-06T09:49:30.550Z,13.65
2023-01-06T09:52:05.006Z,18.38
2023-01-06T09:54:40.413Z,16.15
2023-01-06T09:57:16.925Z,11.65
2023-01-06T09:59:51.389Z,14.15
2023-01-06T10:02:27.647Z,17.10
2023-01-06T10:04:58.486Z,15.25
2023-01-06T10:07:34.734Z,14.27
2023-01-06T10:10:20.655Z,17.25
2023-01-06T10:13:02.928Z,13.27
2023-01-06T10:15:42.945Z,15.07
2023-01-06T10:18:33.798Z,14.93
2023-01-06T10:21:14.272Z,16.58
2023-01-06T10:24:23.139Z,15.40
2023-01-06T10:26:58.161Z,18.15
2023-01-06T10:29:30.918Z,16.35
2023-01-06T10:32:03.628Z,18.88
2023-01-06T10:34:36.696Z,15.55
2023-01-06T10:37:20.170Z,14.18
2023-01-06T10:39:55.472Z,17.15
2023-01-06T10:42:52.334Z,14.60
2023-01-06T10:45:22.986Z,19.50
2023-01-06T10:47:54.078Z,15.90
2023-01-06T10:50:23.958Z,13.80
2023-01-06T10:55:42.720Z,17.25
2023-01-06T10:58:23.885Z,17.48
2023-01-06T11:01:08.382Z,18.90
2023-01-06T11:03:42.783Z,15.90
2023-01-06T11:06:19.743Z,14.60
2023-01-06T11:08:50.739Z,14.35
2023-01-06T11:11:28.123Z,17.30
2023-01-06T11:14:00.585Z,18.20
2023-01-06T11:16:32.505Z,14.57
2023-01-06T11:19:05.539Z,17.15
2023-01-06T11:21:41.919Z,18.50
2023-01-06T11:24:19.351Z,18.67
2023-01-06T11:26:53.788Z,15.18
2023-01-06T11:29:28.842Z,14.77
2023-01-06T11:32:02.317Z,18.35
2023-01-06T11:34:32.575Z,17.60
2023-01-06T11:39:35.711Z,18.42
2023-01-06T11:42:10.473Z,12.85
2023-01-06T11:44:42.382Z,21.58
2023-01-06T11:47:16.934Z,16.40
2023-01-06T11:49:50.275Z,13.43
2023-01-06T11:52:24.718Z,18.40
2023-01-06T11:55:05.018Z,14.73
2023-01-06T11:57:44.227Z,9.15
2023-01-06T12:00:39.664Z,13.00
2023-01-06T12:03:18.048Z,11.20
2023-01-06T12:05:53.260Z,11.68
2023-01-06T12:08:25.453Z,15.80
2023-01-06T12:11:03.045Z,11.88
2023-01-06T12:13:44.373Z,17.20
2023-01-06T12:16:22.911Z,16.05
2023-01-06T12:18:53.072Z,12.43
2023-01-06T12:21:30.010Z,17.50
2023-01-06T12:24:02.821Z,11.95
2023-01-06T12:26:35.401Z,15.88
2023-01-06T12:29:07.464Z,12.32
2023-01-06T12:31:45.443Z,12.32
2023-01-06T12:34:21.191Z,10.77
2023-01-06T12:36:55.493Z,12.88
2023-01-06T12:39:32.799Z,9.88
2023-01-06T12:42:10.530Z,16.20
2023-01-06T12:44:50.698Z,12.52
2023-01-06T12:47:26.253Z,12.70
2023-01-06T12:49:59.489Z,16.92
2023-01-06T12:52:34.470Z,14.18
2023-01-06T12:55:03.985Z,12.57
2023-01-06T12:58:00.133Z,14.70
2023-01-06T13:00:40.741Z,13.43
2023-01-06T13:03:51.982Z,12.32
2023-01-06T13:06:47.126Z,10.30
2023-01-06T13:09:32.432Z,10.32
2023-01-06T13:12:18.719Z,12.55
2023-01-06T13:14:59.467Z,15.65
2023-01-06T13:17:36.139Z,16.27
2023-01-06T13:20:08.642Z,15.15
2023-01-06T13:22:55.601Z,13.02
2023-01-06T13:25:47.966Z,11.18
2023-01-06T13:28:27.331Z,18.92
2023-01-06T13:31:23.267Z,13.98
2023-01-06T13:34:26.322Z,11.98
2023-01-06T13:37:15.617Z,10.48
2023-01-06T13:39:48.764Z,17.23
2023-01-06T13:42:21.347Z,11.90
2023-01-06T13:44:51.113Z,13.05
2023-01-06T13:47:24.058Z,14.52
2023-01-06T13:49:53.915Z,15.38
2023-01-06T13:52:27.417Z,14.43
2023-01-06T13:55:03.798Z,18.00
2023-01-06T13:57:39.312Z,15.45
2023-01-06T14:00:25.022Z,16.52
2023-01-06T14:03:25.951Z,15.07
2023-01-06T14:06:00.153Z,14.48
2023-01-06T14:08:37.764Z,16.17
2023-01-06T14:11:22.691Z,16.70
2023-01-06T14:13:55.023Z,17.55
2023-01-06T14:16:40.090Z,18.50
2023-01-06T14:19:19.656Z,21.52
2023-01-06T14:21:50.032Z,19.43
2023-01-06T14:24:28.804Z,18.38
2023-01-06T14:27:02.450Z,17.90
2023-01-06T14:29:49.210Z,20.35
2023-01-06T14:33:03.720Z,19.05
2023-01-06T14:35:42.401Z,15.07
2023-01-06T14:38:26.969Z,17.67
2023-01-06T14:41:01.966Z,16.08
2023-01-06T14:43:36.177Z,22.95
2023-01-06T14:46:12.501Z,20.27
2023-01-06T14:48:48.151Z,20.15
2023-01-06T14:51:23.541Z,22.23
2023-01-06T14:54:05.073Z,21.15
2023-01-06T14:56:35.608Z,20.67
2023-01-06T15:01:45.786Z,20.15
2023-01-06T15:04:25.715Z,26.60
2023-01-06T15:09:45.160Z,34.78
2023-01-06T15:12:26.074Z,37.85
2023-01-06T15:14:55.428Z,34.30
2023-01-06T15:17:25.199Z,28.77
2023-01-06T15:19:55.005Z,25.48
2023-01-06T15:24:56.815Z,25.75
2023-01-06T15:27:26.261Z,26.67
2023-01-06T15:29:56.803Z,31.60
2023-01-06T15:32:28.111Z,30.25
2023-01-06T15:34:59.772Z,28.98
2023-01-06T15:37:34.923Z,29.55
2023-01-06T15:40:11.287Z,25.20
2023-01-06T15:42:42.625Z,24.67
2023-01-06T15:45:26.328Z,24.90
2023-01-06T15:47:58.983Z,24.67
2023-01-06T15:50:31.941Z,24.67
2023-01-06T15:53:05.652Z,26.98
2023-01-06T15:55:37.363Z,24.42
2023-01-06T15:58:10.467Z,27.05
2023-01-06T16:00:48.285Z,27.85
2023-01-06T16:03:20.568Z,28.08
2023-01-06T16:05:55.451Z,30.27
2023-01-06T16:08:31.523Z,27.95
2023-01-06T16:11:45.769Z,27.38
2023-01-06T16:14:30.600Z,30.38
2023-01-06T16:17:06.900Z,31.30
2023-01-06T16:19:40.437Z,27.50
2023-01-06T16:22:20.979Z,27.50
2023-01-06T16:24:54.011Z,28.17
2023-01-06T16:27:28.090Z,27.52
2023-01-06T16:30:20.638Z,29.23
2023-01-06T16:32:52.532Z,20.33
2023-01-06T16:35:24.175Z,25.70
2023-01-06T16:37:54.819Z,26.98
2023-01-06T16:40:28.208Z,25.33
2023-01-06T16:43:00.363Z,24.17
2023-01-06T16:45:36.486Z,24.92
2023-01-06T16:48:06.123Z,29.70
2023-01-06T16:50:40.470Z,27.50
2023-01-06T16:53:17.085Z,24.38
2023-01-06T16:55:53.279Z,19.63
2023-01-06T16:58:24.395Z,21.85
2023-01-06T17:00:56.545Z,21.60
2023-01-06T17:03:28.823Z,23.08
2023-01-06T17:05:58.930Z,20.20
2023-01-06T17:08:31.311Z,18.95
2023-01-06T17:11:07.895Z,20.00
2023-01-06T17:13:37.017Z,32.17
2023-01-06T17:16:16.619Z,26.20
2023-01-06T17:18:54.488Z,28.77
2023-01-06T17:21:26.225Z,44.95
2023-01-06T17:23:59.041Z,48.17
2023-01-06T17:26:30.648Z,34.97
2023-01-06T17:29:01.045Z,21.58
2023-01-06T17:31:36.023Z,23.45
2023-01-06T17:34:14.796Z,19.48
2023-01-06T17:36:46.902Z,19.40
2023-01-06T17:39:20.939Z,20.25
2023-01-06T17:41:55.584Z,19.92
2023-01-06T17:44:35.139Z,19.00
2023-01-06T17:47:07.606Z,19.60
2023-01-06T17:49:37.945Z,23.48
2023-01-06T17:52:17.897Z,21.45
2023-01-06T17:55:12.499Z,19.90
2023-01-06T17:57:47.222Z,20.48
2023-01-06T18:00:24.082Z,20.10
2023-01-06T18:03:00.418Z,21.52
2023-01-06T18:06:15.578Z,23.48
2023-01-06T18:08:46.109Z,21.55
2023-01-06T18:11:38.910Z,20.90
2023-01-06T18:14:23.657Z,24.50
2023-01-06T18:16:56.760Z,23.17
2023-01-06T18:19:34.393Z,24.40
2023-01-06T18:22:11.062Z,24.08
2023-01-06T18:24:41.803Z,24.58
2023-01-06T18:27:20.604Z,32.60
2023-01-06T18:29:52.120Z,32.55
2023-01-06T18:32:28.936Z,32.25
2023-01-06T18:35:00.226Z,30.70
2023-01-06T18:37:31.480Z,31.98
2023-01-06T18:40:07.855Z,32.92
2023-01-06T18:42:44.910Z,40.45
2023-01-06T18:45:25.870Z,32.05
2023-01-06T18:47:57.836Z,33.35
2023-01-06T18:50:55.015Z,29.98
2023-01-06T18:53:28.525Z,25.88
2023-01-06T18:55:59.921Z,25.88
2023-01-06T18:58:41.312Z,30.42
2023-01-06T19:01:20.296Z,24.58
2023-01-06T19:04:00.607Z,25.23
2023-01-06T19:06:41.354Z,24.17
2023-01-06T19:09:35.955Z,26.00
2023-01-06T19:12:19.301Z,23.50
2023-01-06T19:14:51.657Z,24.40
2023-01-06T19:17:29.973Z,22.05
2023-01-06T19:20:09.124Z,24.95
2023-01-06T19:22:42.787Z,20.15
2023-01-06T19:25:27.142Z,21.23
2023-01-06T19:27:58.016Z,21.23
2023-01-06T19:30:41.405Z,21.10
2023-01-06T19:33:34.913Z,26.10
2023-01-06T19:36:36.203Z,28.13
2023-01-06T19:39:22.747Z,28.67
2023-01-06T19:41:53.767Z,26.65
2023-01-06T19:44:29.654Z,20.63
2023-01-06T19:47:02.625Z,20.08
2023-01-06T19:49:41.197Z,24.63
2023-01-06T19:52:39.269Z,24.45
2023-01-06T19:55:21.390Z,18.60
2023-01-06T19:57:53.230Z,18.33
2023-01-06T20:00:29.388Z,20.20
2023-01-06T20:03:01.791Z,17.52
2023-01-06T20:05:34.504Z,18.98
2023-01-06T20:08:03.587Z,24.52
2023-01-06T20:10:33.030Z,23.23
2023-01-06T20:13:02.428Z,24.43
2023-01-06T20:15:32.191Z,24.75
2023-01-06T20:18:01.436Z,22.17
2023-01-06T20:20:33.148Z,26.10
2023-01-06T20:23:02.686Z,21.13
2023-01-06T20:25:31.931Z,19.88
2023-01-06T20:28:00.960Z,23.60
2023-01-06T20:30:30.466Z,20.95
2023-01-06T20:32:59.829Z,23.25
2023-01-06T20:35:29.765Z,21.30
2023-01-06T20:38:00.506Z,21.42
2023-01-06T20:40:29.801Z,23.30
2023-01-06T20:42:59.478Z,21.83
2023-01-06T20:45:29.026Z,17.60
2023-01-06T20:47:58.132Z,21.13
2023-01-06T20:50:28.815Z,24.23
2023-01-06T20:52:59.872Z,27.02
2023-01-06T20:55:29.191Z,21.75
2023-01-06T20:57:58.427Z,23.27
2023-01-06T21:00:28.790Z,23.83
2023-01-06T21:02:57.926Z,22.23
2023-01-06T21:05:28.918Z,24.80
2023-01-06T21:07:59.452Z,29.48
2023-01-06T21:10:29.118Z,32.20
2023-01-06T21:12:58.748Z,31.15
2023-01-06T21:17:57.836Z,30.08
2023-01-06T21:20:27.251Z,27.20
2023-01-06T21:22:56.379Z,24.23
2023-01-06T21:25:27.158Z,22.80
2023-01-06T21:27:56.269Z,26.80
2023-01-06T21:30:27.967Z,24.42
2023-01-06T21:32:57.159Z,35.65
2023-01-06T21:35:26.543Z,33.03
2023-01-06T21:37:55.659Z,26.80
2023-01-06T21:40:26.606Z,30.00
2023-01-06T21:43:09.715Z,30.08
2023-01-06T21:45:40.087Z,23.92
2023-01-06T21:48:12.581Z,27.77
2023-01-06T21:50:45.978Z,27.42
2023-01-06T21:53:15.670Z,31.23
2023-01-06T21:55:46.316Z,29.30
2023-01-06T21:58:15.410Z,30.17
2023-01-06T22:00:44.651Z,27.52
2023-01-06T22:03:14.378Z,28.80
2023-01-06T22:08:13.608Z,24.27
2023-01-06T22:13:18.267Z,23.10
2023-01-06T22:15:48.049Z,30.08
2023-01-06T22:18:17.869Z,28.58
2023-01-06T22:20:47.691Z,28.80
2023-01-06T22:23:19.701Z,31.75
2023-01-06T22:25:50.780Z,30.52
2023-01-06T22:28:21.445Z,35.97
2023-01-06T22:30:51.530Z,34.13
2023-01-06T22:33:20.635Z,27.98
2023-01-06T22:35:50.157Z,34.38
2023-01-06T22:38:19.471Z,29.67
2023-01-06T22:40:48.724Z,26.48
2023-01-06T22:43:18.309Z,32.03
2023-01-06T22:45:55.142Z,37.47
2023-01-06T22:48:24.835Z,30.17
2023-01-06T22:50:58.896Z,31.25
2023-01-06T22:53:28.839Z,28.40
2023-01-06T22:55:59.124Z,34.47
2023-01-06T23:00:58.928Z,32.53
2023-01-06T23:03:28.746Z,30.63
2023-01-06T23:05:59.467Z,34.72
2023-01-06T23:08:30.030Z,40.47
2023-01-06T23:11:03.804Z,41.70
2023-01-06T23:13:33.317Z,38.47
2023-01-06T23:16:06.459Z,40.70
2023-01-06T23:18:38.994Z,32.90
2023-01-06T23:21:10.379Z,36.75
2023-01-06T23:23:41.206Z,31.23
2023-01-06T23:26:13.339Z,33.13
2023-01-06T23:28:43.773Z,40.13
2023-01-06T23:31:17.434Z,33.17
2023-01-06T23:33:48.239Z,30.40
2023-01-06T23:36:19.763Z,28.15
2023-01-06T23:38:49.107Z,34.63
2023-01-06T23:41:21.901Z,27.55
2023-01-06T23:43:52.014Z,35.05
2023-01-06T23:46:25.366Z,34.58
2023-01-06T23:48:55.338Z,40.28
2023-01-06T23:51:25.663Z,38.90
2023-01-06T23:56:25.695Z,33.58
2023-01-06T23:58:56.180Z,29.00
